sensor_id;sensor_type;location;lat;lon;timestamp;pressure;altitude;pressure_sealevel;temperature;humidity
8641;BME280;4358;42.100;25.222;2023-04-05T00:01:24;99416.13;;;6.21;100.00
8641;BME280;4358;42.100;25.222;2023-04-05T00:03:51;99413.25;;;6.26;100.00
8641;BME280;4358;42.100;25.222;2023-04-05T00:06:18;99408.91;;;6.25;100.00
8641;BME280;4358;42.100;25.222;2023-04-05T00:08:46;99409.81;;;6.24;100.00
8641;BME280;4358;42.100;25.222;2023-04-05T00:11:14;99412.81;;;6.18;100.00
8641;BME280;4358;42.100;25.222;2023-04-05T00:13:41;99412.72;;;6.19;100.00
8641;BME280;4358;42.100;25.222;2023-04-05T00:16:09;99413.00;;;6.15;100.00
8641;BME280;4358;42.100;25.222;2023-04-05T00:18:36;99403.56;;;6.11;100.00
8641;BME280;4358;42.100;25.222;2023-04-05T00:21:04;99405.44;;;6.09;100.00
8641;BME280;4358;42.100;25.222;2023-04-05T00:23:31;99403.06;;;6.04;100.00
8641;BME280;4358;42.100;25.222;2023-04-05T00:26:02;99406.53;;;6.05;100.00
8641;BME280;4358;42.100;25.222;2023-04-05T00:28:29;99409.38;;;6.02;100.00
8641;BME280;4358;42.100;25.222;2023-04-05T00:30:56;99416.31;;;6.03;100.00
8641;BME280;4358;42.100;25.222;2023-04-05T00:33:24;99419.72;;;6.05;100.00
8641;BME280;4358;42.100;25.222;2023-04-05T00:35:51;99423.03;;;6.08;100.00
8641;BME280;4358;42.100;25.222;2023-04-05T00:38:18;99425.75;;;6.07;100.00
8641;BME280;4358;42.100;25.222;2023-04-05T00:40:45;99429.13;;;6.09;100.00
8641;BME280;4358;42.100;25.222;2023-04-05T00:43:12;99420.22;;;6.11;100.00
8641;BME280;4358;42.100;25.222;2023-04-05T00:45:39;99430.50;;;6.16;100.00
8641;BME280;4358;42.100;25.222;2023-04-05T00:48:05;99421.94;;;6.12;100.00
8641;BME280;4358;42.100;25.222;2023-04-05T00:50:34;99428.72;;;6.16;100.00
8641;BME280;4358;42.100;25.222;2023-04-05T00:53:01;99418.19;;;6.16;100.00
8641;BME280;4358;42.100;25.222;2023-04-05T00:55:28;99423.28;;;6.19;100.00
8641;BME280;4358;42.100;25.222;2023-04-05T00:57:58;99395.22;;;6.03;100.00
8641;BME280;4358;42.100;25.222;2023-04-05T01:00:25;99430.06;;;6.23;100.00
8641;BME280;4358;42.100;25.222;2023-04-05T01:02:55;99422.25;;;6.22;100.00
8641;BME280;4358;42.100;25.222;2023-04-05T01:05:36;99431.09;;;6.21;100.00
8641;BME280;4358;42.100;25.222;2023-04-05T01:08:11;99426.69;;;6.21;100.00
8641;BME280;4358;42.100;25.222;2023-04-05T01:10:43;99424.13;;;6.20;100.00
8641;BME280;4358;42.100;25.222;2023-04-05T01:13:10;99424.13;;;6.20;100.00
8641;BME280;4358;42.100;25.222;2023-04-05T01:15:37;99419.38;;;6.11;100.00
8641;BME280;4358;42.100;25.222;2023-04-05T01:18:04;99441.97;;;6.15;100.00
8641;BME280;4358;42.100;25.222;2023-04-05T01:20:36;99435.19;;;6.11;100.00
8641;BME280;4358;42.100;25.222;2023-04-05T01:23:15;99418.88;;;6.04;100.00
8641;BME280;4358;42.100;25.222;2023-04-05T01:25:56;99438.41;;;6.16;100.00
8641;BME280;4358;42.100;25.222;2023-04-05T01:29:01;99439.41;;;6.13;100.00
8641;BME280;4358;42.100;25.222;2023-04-05T01:31:41;99441.03;;;6.16;100.00
8641;BME280;4358;42.100;25.222;2023-04-05T01:34:24;99441.97;;;6.15;100.00
8641;BME280;4358;42.100;25.222;2023-04-05T01:36:54;99443.59;;;6.17;100.00
8641;BME280;4358;42.100;25.222;2023-04-05T01:39:22;99450.66;;;6.17;100.00
8641;BME280;4358;42.100;25.222;2023-04-05T01:41:50;99429.41;;;6.04;100.00
8641;BME280;4358;42.100;25.222;2023-04-05T01:44:17;99450.81;;;6.14;100.00
8641;BME280;4358;42.100;25.222;2023-04-05T01:46:45;99449.09;;;6.13;100.00
8641;BME280;4358;42.100;25.222;2023-04-05T01:49:12;99451.00;;;6.11;100.00
8641;BME280;4358;42.100;25.222;2023-04-05T01:51:39;99456.59;;;6.05;100.00
8641;BME280;4358;42.100;25.222;2023-04-05T01:54:07;99458.81;;;5.97;100.00
8641;BME280;4358;42.100;25.222;2023-04-05T01:56:34;99456.94;;;5.99;100.00
8641;BME280;4358;42.100;25.222;2023-04-05T01:59:01;99449.97;;;5.97;100.00
8641;BME280;4358;42.100;25.222;2023-04-05T02:01:27;99460.75;;;5.93;100.00
8641;BME280;4358;42.100;25.222;2023-04-05T02:03:56;99464.41;;;5.90;100.00
8641;BME280;4358;42.100;25.222;2023-04-05T02:06:23;99463.47;;;5.91;100.00
8641;BME280;4358;42.100;25.222;2023-04-05T02:08:50;99462.53;;;5.92;100.00
8641;BME280;4358;42.100;25.222;2023-04-05T02:11:17;99467.81;;;5.92;100.00
8641;BME280;4358;42.100;25.222;2023-04-05T02:13:44;99470.28;;;5.95;100.00
8641;BME280;4358;42.100;25.222;2023-04-05T02:16:11;99471.22;;;5.94;100.00
8641;BME280;4358;42.100;25.222;2023-04-05T02:18:38;99465.09;;;5.94;100.00
8641;BME280;4358;42.100;25.222;2023-04-05T02:21:08;99473.25;;;5.89;100.00
8641;BME280;4358;42.100;25.222;2023-04-05T02:23:37;99470.44;;;5.92;100.00
8641;BME280;4358;42.100;25.222;2023-04-05T02:26:04;99478.44;;;5.91;100.00
8641;BME280;4358;42.100;25.222;2023-04-05T02:28:31;99471.53;;;5.88;100.00
8641;BME280;4358;42.100;25.222;2023-04-05T02:30:57;99467.59;;;5.80;100.00
8641;BME280;4358;42.100;25.222;2023-04-05T02:33:24;99478.81;;;5.83;100.00
8641;BME280;4358;42.100;25.222;2023-04-05T02:35:52;99488.56;;;5.81;100.00
8641;BME280;4358;42.100;25.222;2023-04-05T02:38:21;99489.16;;;5.86;100.00
8641;BME280;4358;42.100;25.222;2023-04-05T02:40:48;99496.25;;;5.86;100.00
8641;BME280;4358;42.100;25.222;2023-04-05T02:43:15;99491.97;;;5.83;100.00
8641;BME280;4358;42.100;25.222;2023-04-05T02:45:42;99499.88;;;5.83;100.00
8641;BME280;4358;42.100;25.222;2023-04-05T02:48:10;99500.06;;;5.80;100.00
8641;BME280;4358;42.100;25.222;2023-04-05T02:50:37;99495.13;;;5.74;100.00
8641;BME280;4358;42.100;25.222;2023-04-05T02:53:04;99496.91;;;5.74;100.00
8641;BME280;4358;42.100;25.222;2023-04-05T02:55:32;99511.84;;;5.73;100.00
8641;BME280;4358;42.100;25.222;2023-04-05T02:57:59;99499.53;;;5.74;100.00
8641;BME280;4358;42.100;25.222;2023-04-05T03:00:26;99517.41;;;5.67;100.00
8641;BME280;4358;42.100;25.222;2023-04-05T03:02:56;99519.22;;;5.67;100.00
8641;BME280;4358;42.100;25.222;2023-04-05T03:05:23;99515.81;;;5.65;100.00
8641;BME280;4358;42.100;25.222;2023-04-05T03:07:50;99516.22;;;5.57;100.00
8641;BME280;4358;42.100;25.222;2023-04-05T03:10:17;99522.41;;;5.56;100.00
8641;BME280;4358;42.100;25.222;2023-04-05T03:12:48;99520.38;;;5.61;100.00
8641;BME280;4358;42.100;25.222;2023-04-05T03:15:15;99517.75;;;5.61;100.00
8641;BME280;4358;42.100;25.222;2023-04-05T03:17:42;99516.13;;;5.59;100.00
8641;BME280;4358;42.100;25.222;2023-04-05T03:20:11;99516.13;;;5.59;100.00
8641;BME280;4358;42.100;25.222;2023-04-05T03:22:39;99515.28;;;5.58;100.00
8641;BME280;4358;42.100;25.222;2023-04-05T03:25:06;99520.47;;;5.60;100.00
8641;BME280;4358;42.100;25.222;2023-04-05T03:27:33;99511.56;;;5.62;100.00
8641;BME280;4358;42.100;25.222;2023-04-05T03:30:03;99521.94;;;5.65;100.00
8641;BME280;4358;42.100;25.222;2023-04-05T03:32:29;99523.72;;;5.65;100.00
8641;BME280;4358;42.100;25.222;2023-04-05T03:34:56;99525.31;;;5.67;100.00
8641;BME280;4358;42.100;25.222;2023-04-05T03:37:23;99520.06;;;5.67;100.00
8641;BME280;4358;42.100;25.222;2023-04-05T03:39:50;99527.03;;;5.68;100.00
8641;BME280;4358;42.100;25.222;2023-04-05T03:42:17;99527.22;;;5.65;100.00
8641;BME280;4358;42.100;25.222;2023-04-05T03:44:44;99532.47;;;5.65;100.00
8641;BME280;4358;42.100;25.222;2023-04-05T03:47:13;99536.16;;;5.61;100.00
8641;BME280;4358;42.100;25.222;2023-04-05T03:49:40;99543.94;;;5.64;100.00
8641;BME280;4358;42.100;25.222;2023-04-05T03:52:07;99555.22;;;5.66;100.00
8641;BME280;4358;42.100;25.222;2023-04-05T03:54:34;99547.00;;;5.55;100.00
8641;BME280;4358;42.100;25.222;2023-04-05T03:57:01;99546.03;;;5.58;100.00
8641;BME280;4358;42.100;25.222;2023-04-05T03:59:27;99549.34;;;5.61;100.00
8641;BME280;4358;42.100;25.222;2023-04-05T04:01:54;99553.69;;;5.62;100.00
8641;BME280;4358;42.100;25.222;2023-04-05T04:04:22;99558.78;;;5.65;100.00
8641;BME280;4358;42.100;25.222;2023-04-05T04:06:49;99551.81;;;5.64;100.00
8641;BME280;4358;42.100;25.222;2023-04-05T04:09:16;99567.94;;;5.58;100.00
8641;BME280;4358;42.100;25.222;2023-04-05T04:11:43;99559.19;;;5.58;100.00
8641;BME280;4358;42.100;25.222;2023-04-05T04:14:10;99564.81;;;5.50;100.00
8641;BME280;4358;42.100;25.222;2023-04-05T04:16:37;99564.53;;;5.56;100.00
8641;BME280;4358;42.100;25.222;2023-04-05T04:19:04;99567.94;;;5.58;100.00
8641;BME280;4358;42.100;25.222;2023-04-05T04:21:32;99569.66;;;5.59;100.00
8641;BME280;4358;42.100;25.222;2023-04-05T04:24:00;99571.31;;;5.60;100.00
8641;BME280;4358;42.100;25.222;2023-04-05T04:26:27;99568.94;;;5.55;100.00
8641;BME280;4358;42.100;25.222;2023-04-05T04:28:54;99574.59;;;5.65;100.00
8641;BME280;4358;42.100;25.222;2023-04-05T04:31:21;99580.91;;;5.61;100.00
8641;BME280;4358;42.100;25.222;2023-04-05T04:33:48;99580.31;;;5.56;100.00
8641;BME280;4358;42.100;25.222;2023-04-05T04:36:18;99577.59;;;5.58;100.00
8641;BME280;4358;42.100;25.222;2023-04-05T04:39:00;99571.31;;;5.60;100.00
8641;BME280;4358;42.100;25.222;2023-04-05T04:41:30;99582.31;;;5.68;100.00
8641;BME280;4358;42.100;25.222;2023-04-05T04:43:58;99577.97;;;5.67;100.00
8641;BME280;4358;42.100;25.222;2023-04-05T04:46:27;99572.53;;;5.54;100.00
8641;BME280;4358;42.100;25.222;2023-04-05T04:48:55;99587.66;;;5.67;100.00
8641;BME280;4358;42.100;25.222;2023-04-05T04:51:22;99590.03;;;5.71;100.00
8641;BME280;4358;42.100;25.222;2023-04-05T04:53:50;99584.16;;;5.66;100.00
8641;BME280;4358;42.100;25.222;2023-04-05T04:56:18;99580.47;;;5.53;100.00
8641;BME280;4358;42.100;25.222;2023-04-05T04:58:45;99588.19;;;5.73;100.00
8641;BME280;4358;42.100;25.222;2023-04-05T05:01:12;99595.00;;;5.77;100.00
8641;BME280;4358;42.100;25.222;2023-04-05T05:03:41;99593.16;;;5.79;100.00
8641;BME280;4358;42.100;25.222;2023-04-05T05:06:08;99605.00;;;5.88;100.00
8641;BME280;4358;42.100;25.222;2023-04-05T05:08:36;99606.00;;;5.85;100.00
8641;BME280;4358;42.100;25.222;2023-04-05T05:11:05;99606.84;;;5.86;100.00
8641;BME280;4358;42.100;25.222;2023-04-05T05:13:34;99604.63;;;5.95;100.00
8641;BME280;4358;42.100;25.222;2023-04-05T05:16:00;99598.50;;;5.95;100.00
8641;BME280;4358;42.100;25.222;2023-04-05T05:18:28;99603.59;;;5.98;100.00
8641;BME280;4358;42.100;25.222;2023-04-05T05:20:55;99608.34;;;6.07;100.00
8641;BME280;4358;42.100;25.222;2023-04-05T05:23:22;99612.81;;;6.07;100.00
8641;BME280;4358;42.100;25.222;2023-04-05T05:25:49;99619.44;;;6.14;100.00
8641;BME280;4358;42.100;25.222;2023-04-05T05:28:16;99622.66;;;6.19;100.00
8641;BME280;4358;42.100;25.222;2023-04-05T05:30:44;99614.19;;;6.29;100.00
8641;BME280;4358;42.100;25.222;2023-04-05T05:33:11;99620.50;;;6.27;100.00
8641;BME280;4358;42.100;25.222;2023-04-05T05:35:38;99630.84;;;6.30;100.00
8641;BME280;4358;42.100;25.222;2023-04-05T05:38:05;99613.00;;;6.35;100.00
8641;BME280;4358;42.100;25.222;2023-04-05T05:40:32;99611.75;;;6.42;100.00
8641;BME280;4358;42.100;25.222;2023-04-05T05:42:59;99618.03;;;6.55;100.00
8641;BME280;4358;42.100;25.222;2023-04-05T05:45:25;99604.69;;;6.58;100.00
8641;BME280;4358;42.100;25.222;2023-04-05T05:47:55;99626.22;;;6.66;100.00
8641;BME280;4358;42.100;25.222;2023-04-05T05:50:21;99621.00;;;6.80;100.00
8641;BME280;4358;42.100;25.222;2023-04-05T05:52:48;99626.81;;;6.87;100.00
8641;BME280;4358;42.100;25.222;2023-04-05T05:55:15;99638.28;;;6.86;100.00
8641;BME280;4358;42.100;25.222;2023-04-05T05:57:42;99630.47;;;6.85;100.00
8641;BME280;4358;42.100;25.222;2023-04-05T06:00:10;99634.63;;;6.89;100.00
8641;BME280;4358;42.100;25.222;2023-04-05T06:02:37;99627.13;;;6.97;100.00
8641;BME280;4358;42.100;25.222;2023-04-05T06:05:06;99640.31;;;6.97;100.00
8641;BME280;4358;42.100;25.222;2023-04-05T06:07:35;99639.38;;;6.98;100.00
8641;BME280;4358;42.100;25.222;2023-04-05T06:10:02;99644.53;;;6.85;100.00
8641;BME280;4358;42.100;25.222;2023-04-05T06:12:29;99629.38;;;6.89;100.00
8641;BME280;4358;42.100;25.222;2023-04-05T06:14:56;99643.34;;;6.91;100.00
8641;BME280;4358;42.100;25.222;2023-04-05T06:17:23;99640.31;;;6.97;100.00
8641;BME280;4358;42.100;25.222;2023-04-05T06:19:50;99652.91;;;6.92;100.00
8641;BME280;4358;42.100;25.222;2023-04-05T06:22:18;99646.38;;;6.99;100.00
8641;BME280;4358;42.100;25.222;2023-04-05T06:24:47;99663.72;;;7.03;100.00
8641;BME280;4358;42.100;25.222;2023-04-05T06:27:14;99655.41;;;7.10;100.00
8641;BME280;4358;42.100;25.222;2023-04-05T06:29:41;99666.34;;;7.18;100.00
8641;BME280;4358;42.100;25.222;2023-04-05T06:32:07;99658.00;;;7.26;100.00
8641;BME280;4358;42.100;25.222;2023-04-05T06:34:34;99658.25;;;7.37;100.00
8641;BME280;4358;42.100;25.222;2023-04-05T06:37:01;99663.16;;;7.43;100.00
8641;BME280;4358;42.100;25.222;2023-04-05T06:39:30;99639.81;;;7.51;100.00
8641;BME280;4358;42.100;25.222;2023-04-05T06:41:56;99667.91;;;7.52;100.00
8641;BME280;4358;42.100;25.222;2023-04-05T06:44:23;99665.34;;;7.51;100.00
8641;BME280;4358;42.100;25.222;2023-04-05T06:46:50;99666.22;;;7.51;100.00
8641;BME280;4358;42.100;25.222;2023-04-05T06:49:17;99665.09;;;7.55;100.00
8641;BME280;4358;42.100;25.222;2023-04-05T06:51:44;99670.00;;;7.61;100.00
8641;BME280;4358;42.100;25.222;2023-04-05T06:54:10;99675.69;;;7.70;100.00
8641;BME280;4358;42.100;25.222;2023-04-05T06:56:39;99687.66;;;7.61;100.00
8641;BME280;4358;42.100;25.222;2023-04-05T06:59:06;99679.81;;;7.59;100.00
8641;BME280;4358;42.100;25.222;2023-04-05T07:01:33;99691.22;;;7.60;100.00
8641;BME280;4358;42.100;25.222;2023-04-05T07:04:00;99688.84;;;7.55;100.00
8641;BME280;4358;42.100;25.222;2023-04-05T07:06:27;99692.66;;;7.65;100.00
8641;BME280;4358;42.100;25.222;2023-04-05T07:08:53;99696.81;;;7.70;100.00
8641;BME280;4358;42.100;25.222;2023-04-05T07:11:20;99700.41;;;7.69;100.00
8641;BME280;4358;42.100;25.222;2023-04-05T07:13:49;99702.09;;;7.70;100.00
8641;BME280;4358;42.100;25.222;2023-04-05T07:16:16;99695.31;;;7.65;100.00
8641;BME280;4358;42.100;25.222;2023-04-05T07:18:47;99702.78;;;7.73;100.00
8641;BME280;4358;42.100;25.222;2023-04-05T07:21:14;99701.22;;;7.85;100.00
8641;BME280;4358;42.100;25.222;2023-04-05T07:23:41;99706.91;;;7.93;100.00
8641;BME280;4358;42.100;25.222;2023-04-05T07:26:08;99712.75;;;7.98;100.00
8641;BME280;4358;42.100;25.222;2023-04-05T07:28:36;99710.69;;;8.03;100.00
8641;BME280;4358;42.100;25.222;2023-04-05T07:31:05;99718.44;;;8.06;100.00
8641;BME280;4358;42.100;25.222;2023-04-05T07:33:33;99717.59;;;8.05;100.00
8641;BME280;4358;42.100;25.222;2023-04-05T07:35:59;99711.69;;;8.16;100.00
8641;BME280;4358;42.100;25.222;2023-04-05T07:38:27;99703.34;;;8.22;100.00
8641;BME280;4358;42.100;25.222;2023-04-05T07:40:55;99721.94;;;8.36;100.00
8641;BME280;4358;42.100;25.222;2023-04-05T07:43:23;99720.31;;;8.34;100.00
8641;BME280;4358;42.100;25.222;2023-04-05T07:45:50;99719.56;;;8.46;100.00
8641;BME280;4358;42.100;25.222;2023-04-05T07:48:19;99723.44;;;8.55;100.00
8641;BME280;4358;42.100;25.222;2023-04-05T07:50:46;99729.88;;;8.50;100.00
8641;BME280;4358;42.100;25.222;2023-04-05T07:53:13;99726.84;;;8.57;100.00
8641;BME280;4358;42.100;25.222;2023-04-05T07:55:40;99721.19;;;8.63;100.00
8641;BME280;4358;42.100;25.222;2023-04-05T07:58:07;99733.28;;;8.67;100.00
8641;BME280;4358;42.100;25.222;2023-04-05T08:00:35;99725.53;;;8.78;100.00
8641;BME280;4358;42.100;25.222;2023-04-05T08:03:02;99738.06;;;8.74;100.00
8641;BME280;4358;42.100;25.222;2023-04-05T08:05:31;99747.06;;;8.72;100.00
8641;BME280;4358;42.100;25.222;2023-04-05T08:07:58;99753.78;;;8.63;100.00
8641;BME280;4358;42.100;25.222;2023-04-05T08:10:25;99732.72;;;8.47;100.00
8641;BME280;4358;42.100;25.222;2023-04-05T08:12:52;99738.00;;;8.47;100.00
8641;BME280;4358;42.100;25.222;2023-04-05T08:15:19;99747.81;;;8.45;100.00
8641;BME280;4358;42.100;25.222;2023-04-05T08:17:46;99740.06;;;8.42;100.00
8641;BME280;4358;42.100;25.222;2023-04-05T08:20:13;99734.59;;;8.45;100.00
8641;BME280;4358;42.100;25.222;2023-04-05T08:22:42;99745.16;;;8.45;100.00
8641;BME280;4358;42.100;25.222;2023-04-05T08:25:09;99744.09;;;8.48;100.00
8641;BME280;4358;42.100;25.222;2023-04-05T08:27:36;99770.47;;;8.64;100.00
8641;BME280;4358;42.100;25.222;2023-04-05T08:30:03;99747.31;;;8.53;100.00
8641;BME280;4358;42.100;25.222;2023-04-05T08:32:31;99752.56;;;8.69;100.00
8641;BME280;4358;42.100;25.222;2023-04-05T08:34:58;99758.00;;;8.66;100.00
8641;BME280;4358;42.100;25.222;2023-04-05T08:37:24;99746.69;;;8.78;100.00
8641;BME280;4358;42.100;25.222;2023-04-05T08:39:53;99751.75;;;8.95;100.00
8641;BME280;4358;42.100;25.222;2023-04-05T08:42:27;99761.03;;;9.02;100.00
8641;BME280;4358;42.100;25.222;2023-04-05T08:44:56;99751.38;;;9.01;100.00
8641;BME280;4358;42.100;25.222;2023-04-05T08:47:24;99754.13;;;9.14;100.00
8641;BME280;4358;42.100;25.222;2023-04-05T08:49:51;99747.75;;;9.16;100.00
8641;BME280;4358;42.100;25.222;2023-04-05T08:52:18;99753.72;;;9.20;100.00
8641;BME280;4358;42.100;25.222;2023-04-05T08:54:45;99750.31;;;9.18;100.00
8641;BME280;4358;42.100;25.222;2023-04-05T08:57:13;99748.13;;;9.24;100.00
8641;BME280;4358;42.100;25.222;2023-04-05T08:59:43;99757.63;;;9.14;100.00
8641;BME280;4358;42.100;25.222;2023-04-05T09:02:14;99760.72;;;9.07;100.00
8641;BME280;4358;42.100;25.222;2023-04-05T09:04:42;99760.09;;;9.03;100.00
8641;BME280;4358;42.100;25.222;2023-04-05T09:07:12;99758.28;;;9.04;100.00
8641;BME280;4358;42.100;25.222;2023-04-05T09:09:43;99768.03;;;9.03;100.00
8641;BME280;4358;42.100;25.222;2023-04-05T09:12:13;99766.91;;;8.93;100.00
8641;BME280;4358;42.100;25.222;2023-04-05T09:14:40;99774.81;;;9.07;100.00
8641;BME280;4358;42.100;25.222;2023-04-05T09:17:08;99780.69;;;8.98;100.00
8641;BME280;4358;42.100;25.222;2023-04-05T09:19:35;99782.41;;;8.99;100.00
8641;BME280;4358;42.100;25.222;2023-04-05T09:22:03;99773.13;;;9.06;100.00
8641;BME280;4358;42.100;25.222;2023-04-05T09:24:31;99766.50;;;9.13;100.00
8641;BME280;4358;42.100;25.222;2023-04-05T09:27:06;99772.16;;;9.21;100.00
8641;BME280;4358;42.100;25.222;2023-04-05T09:29:35;99774.66;;;9.10;100.00
8641;BME280;4358;42.100;25.222;2023-04-05T09:32:03;99778.03;;;9.12;100.00
8641;BME280;4358;42.100;25.222;2023-04-05T09:34:31;99775.94;;;9.17;100.00
8641;BME280;4358;42.100;25.222;2023-04-05T09:36:59;99780.84;;;9.23;100.00
8641;BME280;4358;42.100;25.222;2023-04-05T09:39:30;99757.41;;;9.17;100.00
8641;BME280;4358;42.100;25.222;2023-04-05T09:42:04;99778.69;;;9.30;100.00
8641;BME280;4358;42.100;25.222;2023-04-05T09:44:51;99767.41;;;9.41;100.00
8641;BME280;4358;42.100;25.222;2023-04-05T09:47:19;99770.78;;;9.43;100.00
8641;BME280;4358;42.100;25.222;2023-04-05T09:49:46;99764.16;;;9.50;100.00
8641;BME280;4358;42.100;25.222;2023-04-05T09:52:17;99764.16;;;9.50;100.00
8641;BME280;4358;42.100;25.222;2023-04-05T09:54:44;99772.00;;;9.51;100.00
8641;BME280;4358;42.100;25.222;2023-04-05T09:57:12;99777.19;;;9.53;100.00
8641;BME280;4358;42.100;25.222;2023-04-05T09:59:39;99779.75;;;9.54;100.00
8641;BME280;4358;42.100;25.222;2023-04-05T10:02:09;99784.56;;;9.48;100.00
8641;BME280;4358;42.100;25.222;2023-04-05T10:04:39;99771.31;;;9.48;100.00
8641;BME280;4358;42.100;25.222;2023-04-05T10:07:08;99767.34;;;9.55;100.00
8641;BME280;4358;42.100;25.222;2023-04-05T10:09:36;99778.03;;;9.53;100.00
8641;BME280;4358;42.100;25.222;2023-04-05T10:12:03;99772.25;;;9.61;100.00
8641;BME280;4358;42.100;25.222;2023-04-05T10:14:31;99777.59;;;9.73;100.00
8641;BME280;4358;42.100;25.222;2023-04-05T10:17:03;99774.13;;;9.73;100.00
8641;BME280;4358;42.100;25.222;2023-04-05T10:19:48;99772.97;;;9.77;100.00
8641;BME280;4358;42.100;25.222;2023-04-05T10:22:23;99776.69;;;9.87;100.00
8641;BME280;4358;42.100;25.222;2023-04-05T10:24:53;99754.88;;;9.96;100.00
8641;BME280;4358;42.100;25.222;2023-04-05T10:27:29;99770.28;;;10.04;100.00
8641;BME280;4358;42.100;25.222;2023-04-05T10:30:02;99774.38;;;9.95;100.00
8641;BME280;4358;42.100;25.222;2023-04-05T10:32:40;99769.06;;;9.95;100.00
8641;BME280;4358;42.100;25.222;2023-04-05T10:35:15;99783.72;;;10.01;100.00
8641;BME280;4358;42.100;25.222;2023-04-05T10:37:52;99751.69;;;9.91;100.00
8641;BME280;4358;42.100;25.222;2023-04-05T10:40:20;99760.19;;;9.96;100.00
8641;BME280;4358;42.100;25.222;2023-04-05T10:42:47;99768.25;;;10.07;100.00
8641;BME280;4358;42.100;25.222;2023-04-05T10:45:16;99774.91;;;10.27;100.00
8641;BME280;4358;42.100;25.222;2023-04-05T10:47:48;99776.72;;;10.27;100.00
8641;BME280;4358;42.100;25.222;2023-04-05T10:50:21;99773.88;;;10.30;100.00
8641;BME280;4358;42.100;25.222;2023-04-05T10:52:48;99770.91;;;10.34;100.00
8641;BME280;4358;42.100;25.222;2023-04-05T10:55:16;99766.22;;;10.38;100.00
8641;BME280;4358;42.100;25.222;2023-04-05T10:57:44;99774.09;;;10.39;100.00
8641;BME280;4358;42.100;25.222;2023-04-05T11:00:14;99778.44;;;10.40;100.00
8641;BME280;4358;42.100;25.222;2023-04-05T11:02:41;99780.44;;;10.37;100.00
8641;BME280;4358;42.100;25.222;2023-04-05T11:05:31;99777.78;;;10.37;99.88
8641;BME280;4358;42.100;25.222;2023-04-05T11:08:02;99779.81;;;10.46;100.00
8641;BME280;4358;42.100;25.222;2023-04-05T11:10:29;99777.06;;;10.35;100.00
8641;BME280;4358;42.100;25.222;2023-04-05T11:13:05;99787.44;;;10.38;99.70
8641;BME280;4358;42.100;25.222;2023-04-05T11:15:34;99789.19;;;10.51;100.00
8641;BME280;4358;42.100;25.222;2023-04-05T11:18:06;99777.72;;;10.51;100.00
8641;BME280;4358;42.100;25.222;2023-04-05T11:20:45;99780.13;;;10.54;100.00
8641;BME280;4358;42.100;25.222;2023-04-05T11:23:13;99768.34;;;10.58;100.00
8641;BME280;4358;42.100;25.222;2023-04-05T11:25:45;99770.06;;;10.59;100.00
8641;BME280;4358;42.100;25.222;2023-04-05T11:28:28;99778.03;;;10.59;100.00
8641;BME280;4358;42.100;25.222;2023-04-05T11:30:56;99779.81;;;10.46;100.00
8641;BME280;4358;42.100;25.222;2023-04-05T11:33:37;99781.72;;;10.44;100.00
8641;BME280;4358;42.100;25.222;2023-04-05T11:36:06;99783.44;;;10.45;100.00
8641;BME280;4358;42.100;25.222;2023-04-05T11:38:34;99783.63;;;10.42;100.00
8641;BME280;4358;42.100;25.222;2023-04-05T11:41:05;99779.16;;;10.30;100.00
8641;BME280;4358;42.100;25.222;2023-04-05T11:43:32;99775.75;;;10.28;100.00
8641;BME280;4358;42.100;25.222;2023-04-05T11:46:01;99771.41;;;10.27;100.00
8641;BME280;4358;42.100;25.222;2023-04-05T11:48:29;99771.81;;;10.20;100.00
8641;BME280;4358;42.100;25.222;2023-04-05T11:50:56;99787.88;;;10.05;100.00
8641;BME280;4358;42.100;25.222;2023-04-05T11:53:25;99762.50;;;9.88;100.00
8641;BME280;4358;42.100;25.222;2023-04-05T11:55:51;99780.69;;;9.80;100.00
8641;BME280;4358;42.100;25.222;2023-04-05T11:58:21;99764.78;;;9.80;100.00
8641;BME280;4358;42.100;25.222;2023-04-05T12:00:56;99757.34;;;9.72;100.00
8641;BME280;4358;42.100;25.222;2023-04-05T12:03:25;99761.50;;;9.76;100.00
8641;BME280;4358;42.100;25.222;2023-04-05T12:05:54;99760.03;;;9.58;100.00
8641;BME280;4358;42.100;25.222;2023-04-05T12:08:22;99779.13;;;9.63;100.00
8641;BME280;4358;42.100;25.222;2023-04-05T12:10:54;99771.09;;;9.65;100.00
8641;BME280;4358;42.100;25.222;2023-04-05T12:13:26;99765.78;;;9.65;100.00
8641;BME280;4358;42.100;25.222;2023-04-05T12:15:56;99768.53;;;9.63;100.00
8641;BME280;4358;42.100;25.222;2023-04-05T12:18:24;99763.69;;;9.70;100.00
8641;BME280;4358;42.100;25.222;2023-04-05T12:20:51;99772.00;;;9.78;100.00
8641;BME280;4358;42.100;25.222;2023-04-05T12:23:18;99761.59;;;9.75;100.00
8641;BME280;4358;42.100;25.222;2023-04-05T12:25:46;99752.31;;;9.82;100.00
8641;BME280;4358;42.100;25.222;2023-04-05T12:28:14;99761.97;;;9.83;100.00
8641;BME280;4358;42.100;25.222;2023-04-05T12:30:47;99791.59;;;9.75;100.00
8641;BME280;4358;42.100;25.222;2023-04-05T12:33:14;99772.03;;;9.64;100.00
8641;BME280;4358;42.100;25.222;2023-04-05T12:35:41;99770.91;;;9.68;100.00
8641;BME280;4358;42.100;25.222;2023-04-05T12:38:08;99775.50;;;9.78;100.00
8641;BME280;4358;42.100;25.222;2023-04-05T12:40:36;99754.03;;;9.69;100.00
8641;BME280;4358;42.100;25.222;2023-04-05T12:43:04;99779.28;;;9.74;100.00
8641;BME280;4358;42.100;25.222;2023-04-05T12:45:32;99769.91;;;9.83;100.00
8641;BME280;4358;42.100;25.222;2023-04-05T12:48:07;99768.75;;;9.87;100.00
8641;BME280;4358;42.100;25.222;2023-04-05T12:50:35;99759.72;;;9.77;100.00
8641;BME280;4358;42.100;25.222;2023-04-05T12:53:07;99780.16;;;9.75;100.00
8641;BME280;4358;42.100;25.222;2023-04-05T12:55:41;99771.16;;;9.77;100.00
8641;BME280;4358;42.100;25.222;2023-04-05T12:58:10;99766.25;;;9.71;100.00
8641;BME280;4358;42.100;25.222;2023-04-05T13:00:39;99776.22;;;9.68;100.00
8641;BME280;4358;42.100;25.222;2023-04-05T13:03:14;99770.91;;;9.68;100.00
8641;BME280;4358;42.100;25.222;2023-04-05T13:05:41;99777.16;;;9.67;100.00
8641;BME280;4358;42.100;25.222;2023-04-05T13:08:08;99767.09;;;9.72;100.00
8641;BME280;4358;42.100;25.222;2023-04-05T13:10:34;99774.94;;;9.73;100.00
8641;BME280;4358;42.100;25.222;2023-04-05T13:13:01;99768.59;;;9.76;100.00
8641;BME280;4358;42.100;25.222;2023-04-05T13:15:28;99777.56;;;9.88;100.00
8641;BME280;4358;42.100;25.222;2023-04-05T13:17:56;99775.03;;;9.99;100.00